sensor_id;sensor_type;location;lat;lon;timestamp;pressure;altitude;pressure_sealevel;temperature;humidity
26112;BME280;13829;48.990;8.346;2022-09-03T00:01:58;99958.41;;;19.56;76.09
26112;BME280;13829;48.990;8.346;2022-09-03T00:04:31;99958.44;;;19.54;76.86
26112;BME280;13829;48.990;8.346;2022-09-03T00:07:14;99955.75;;;19.56;75.40
26112;BME280;13829;48.990;8.346;2022-09-03T00:09:48;99963.63;;;19.59;73.29
26112;BME280;13829;48.990;8.346;2022-09-03T00:12:22;99963.38;;;19.65;75.08
26112;BME280;13829;48.990;8.346;2022-09-03T00:14:56;99966.97;;;19.64;73.90
26112;BME280;13829;48.990;8.346;2022-09-03T00:17:30;99967.41;;;19.53;73.95
26112;BME280;13829;48.990;8.346;2022-09-03T00:20:06;99959.72;;;19.46;75.08
26112;BME280;13829;48.990;8.346;2022-09-03T00:22:41;99959.09;;;19.61;76.36
26112;BME280;13829;48.990;8.346;2022-09-03T00:25:16;99958.72;;;19.48;77.13
26112;BME280;13829;48.990;8.346;2022-09-03T00:27:50;99960.28;;;19.30;78.19
26112;BME280;13829;48.990;8.346;2022-09-03T00:30:20;99958.19;;;19.38;78.62
26112;BME280;13829;48.990;8.346;2022-09-03T00:32:55;99955.84;;;19.53;76.64
26112;BME280;13829;48.990;8.346;2022-09-03T00:35:29;99960.25;;;19.54;75.26
26112;BME280;13829;48.990;8.346;2022-09-03T00:37:59;99970.84;;;19.57;75.06
26112;BME280;13829;48.990;8.346;2022-09-03T00:40:49;99969.50;;;19.45;76.00
26112;BME280;13829;48.990;8.346;2022-09-03T00:43:36;99960.41;;;19.27;77.03
26112;BME280;13829;48.990;8.346;2022-09-03T00:46:19;99959.78;;;19.20;77.70
26112;BME280;13829;48.990;8.346;2022-09-03T00:49:12;99971.31;;;19.21;79.04
26112;BME280;13829;48.990;8.346;2022-09-03T00:51:56;99979.91;;;19.29;78.57
26112;BME280;13829;48.990;8.346;2022-09-03T00:54:41;99976.78;;;19.18;77.72
26112;BME280;13829;48.990;8.346;2022-09-03T00:57:30;99982.41;;;19.09;77.25
26112;BME280;13829;48.990;8.346;2022-09-03T01:00:09;99985.28;;;19.04;79.26
26112;BME280;13829;48.990;8.346;2022-09-03T01:02:56;99969.50;;;18.98;79.62
26112;BME280;13829;48.990;8.346;2022-09-03T01:05:48;99970.91;;;18.83;79.35
26112;BME280;13829;48.990;8.346;2022-09-03T01:08:46;99968.09;;;18.86;81.09
26112;BME280;13829;48.990;8.346;2022-09-03T01:11:27;99963.94;;;18.79;81.75
26112;BME280;13829;48.990;8.346;2022-09-03T01:14:09;99957.94;;;18.72;83.07
26112;BME280;13829;48.990;8.346;2022-09-03T01:16:49;99956.47;;;18.65;83.66
26112;BME280;13829;48.990;8.346;2022-09-03T01:19:54;99965.25;;;18.67;84.71
26112;BME280;13829;48.990;8.346;2022-09-03T01:23:08;99975.66;;;18.48;85.78
26112;BME280;13829;48.990;8.346;2022-09-03T01:25:52;99974.03;;;18.44;85.26
26112;BME280;13829;48.990;8.346;2022-09-03T01:28:46;99984.19;;;18.32;86.58
26112;BME280;13829;48.990;8.346;2022-09-03T01:31:28;99981.13;;;18.18;87.69
26112;BME280;13829;48.990;8.346;2022-09-03T01:34:14;99980.75;;;18.29;88.23
26112;BME280;13829;48.990;8.346;2022-09-03T01:36:58;99978.88;;;18.05;89.39
26112;BME280;13829;48.990;8.346;2022-09-03T01:39:44;99982.81;;;17.92;90.15
26112;BME280;13829;48.990;8.346;2022-09-03T01:42:31;99982.50;;;18.03;91.16
26112;BME280;13829;48.990;8.346;2022-09-03T01:48:40;99991.03;;;18.13;91.52
26112;BME280;13829;48.990;8.346;2022-09-03T01:51:20;99986.13;;;18.00;92.18
26112;BME280;13829;48.990;8.346;2022-09-03T01:54:17;99996.97;;;17.94;93.15
26112;BME280;13829;48.990;8.346;2022-09-03T01:57:07;99991.56;;;18.24;92.19
26112;BME280;13829;48.990;8.346;2022-09-03T01:59:48;99984.66;;;18.18;92.91
26112;BME280;13829;48.990;8.346;2022-09-03T02:02:23;99991.34;;;18.03;93.60
26112;BME280;13829;48.990;8.346;2022-09-03T02:04:59;99987.78;;;18.04;94.65
26112;BME280;13829;48.990;8.346;2022-09-03T02:07:32;99980.63;;;18.06;95.73
26112;BME280;13829;48.990;8.346;2022-09-03T02:10:02;99977.13;;;18.04;96.63
26112;BME280;13829;48.990;8.346;2022-09-03T02:12:32;99980.31;;;18.16;97.18
26112;BME280;13829;48.990;8.346;2022-09-03T02:15:10;99976.63;;;18.20;96.82
26112;BME280;13829;48.990;8.346;2022-09-03T02:17:42;99970.44;;;18.19;96.71
26112;BME280;13829;48.990;8.346;2022-09-03T02:20:15;99974.66;;;18.25;97.12
26112;BME280;13829;48.990;8.346;2022-09-03T02:22:45;99976.09;;;18.35;96.49
26112;BME280;13829;48.990;8.346;2022-09-03T02:25:13;99976.22;;;18.32;96.60
26112;BME280;13829;48.990;8.346;2022-09-03T02:27:41;99981.00;;;18.48;96.18
26112;BME280;13829;48.990;8.346;2022-09-03T02:30:10;99972.91;;;18.51;96.29
26112;BME280;13829;48.990;8.346;2022-09-03T02:32:38;99980.09;;;18.49;95.95
26112;BME280;13829;48.990;8.346;2022-09-03T02:35:07;99979.56;;;18.37;96.83
26112;BME280;13829;48.990;8.346;2022-09-03T02:37:34;99970.06;;;18.30;96.78
26112;BME280;13829;48.990;8.346;2022-09-03T02:40:02;99978.13;;;18.54;95.22
26112;BME280;13829;48.990;8.346;2022-09-03T02:42:31;99978.66;;;18.38;95.80
26112;BME280;13829;48.990;8.346;2022-09-03T02:45:12;99967.91;;;18.41;97.03
26112;BME280;13829;48.990;8.346;2022-09-03T02:47:46;99959.47;;;18.54;97.61
26112;BME280;13829;48.990;8.346;2022-09-03T02:50:15;99964.59;;;18.60;96.37
26112;BME280;13829;48.990;8.346;2022-09-03T02:52:42;99963.19;;;18.50;97.11
26112;BME280;13829;48.990;8.346;2022-09-03T02:55:09;99960.31;;;18.56;96.72
26112;BME280;13829;48.990;8.346;2022-09-03T02:57:36;99971.38;;;18.44;97.57
26112;BME280;13829;48.990;8.346;2022-09-03T03:00:05;99985.06;;;18.58;98.91
26112;BME280;13829;48.990;8.346;2022-09-03T03:02:33;99972.91;;;18.51;99.76
26112;BME280;13829;48.990;8.346;2022-09-03T03:05:02;99975.22;;;18.35;100.00
26112;BME280;13829;48.990;8.346;2022-09-03T03:07:36;99969.59;;;18.44;100.00
26112;BME280;13829;48.990;8.346;2022-09-03T03:10:06;99974.75;;;18.49;100.00
26112;BME280;13829;48.990;8.346;2022-09-03T03:12:33;99980.69;;;18.57;99.13
26112;BME280;13829;48.990;8.346;2022-09-03T03:15:00;99968.50;;;18.50;99.32
26112;BME280;13829;48.990;8.346;2022-09-03T03:17:27;99968.28;;;18.31;99.87
26112;BME280;13829;48.990;8.346;2022-09-03T03:19:54;99971.84;;;18.30;100.00
26112;BME280;13829;48.990;8.346;2022-09-03T03:22:22;99972.63;;;18.33;100.00
26112;BME280;13829;48.990;8.346;2022-09-03T03:24:49;99973.19;;;18.43;100.00
26112;BME280;13829;48.990;8.346;2022-09-03T03:27:17;99970.19;;;18.52;98.77
26112;BME280;13829;48.990;8.346;2022-09-03T03:29:44;99978.03;;;18.57;98.61
26112;BME280;13829;48.990;8.346;2022-09-03T03:32:11;99985.06;;;18.60;98.51
26112;BME280;13829;48.990;8.346;2022-09-03T03:34:38;99981.00;;;18.48;99.13
26112;BME280;13829;48.990;8.346;2022-09-03T03:37:05;99986.97;;;18.54;98.04
26112;BME280;13829;48.990;8.346;2022-09-03T03:39:34;99981.88;;;18.48;98.79
26112;BME280;13829;48.990;8.346;2022-09-03T03:42:00;99988.69;;;18.57;98.11
26112;BME280;13829;48.990;8.346;2022-09-03T03:44:27;99991.84;;;18.41;99.09
26112;BME280;13829;48.990;8.346;2022-09-03T03:46:54;100000.88;;;18.37;99.53
26112;BME280;13829;48.990;8.346;2022-09-03T03:49:21;99999.13;;;18.36;100.00
26112;BME280;13829;48.990;8.346;2022-09-03T03:51:48;100002.06;;;18.29;100.00
26112;BME280;13829;48.990;8.346;2022-09-03T03:54:15;100000.22;;;18.31;100.00
26112;BME280;13829;48.990;8.346;2022-09-03T03:56:43;100009.97;;;18.30;100.00
26112;BME280;13829;48.990;8.346;2022-09-03T03:59:10;100012.94;;;18.48;100.00
26112;BME280;13829;48.990;8.346;2022-09-03T04:01:37;100010.41;;;18.45;100.00
26112;BME280;13829;48.990;8.346;2022-09-03T04:04:04;100018.41;;;18.45;100.00
26112;BME280;13829;48.990;8.346;2022-09-03T04:06:31;100022.06;;;18.40;100.00
26112;BME280;13829;48.990;8.346;2022-09-03T04:08:58;100018.69;;;18.35;100.00
26112;BME280;13829;48.990;8.346;2022-09-03T04:11:26;100012.75;;;18.54;100.00
26112;BME280;13829;48.990;8.346;2022-09-03T04:13:54;100012.47;;;18.62;100.00
26112;BME280;13829;48.990;8.346;2022-09-03T04:16:23;100017.97;;;18.57;100.00
26112;BME280;13829;48.990;8.346;2022-09-03T04:18:53;100009.25;;;18.52;100.00
26112;BME280;13829;48.990;8.346;2022-09-03T04:21:23;100016.13;;;18.32;100.00
26112;BME280;13829;48.990;8.346;2022-09-03T04:23:51;100018.59;;;18.38;100.00
26112;BME280;13829;48.990;8.346;2022-09-03T04:26:21;100015.63;;;18.21;100.00
26112;BME280;13829;48.990;8.346;2022-09-03T04:28:49;100013.63;;;18.28;100.00
26112;BME280;13829;48.990;8.346;2022-09-03T04:31:20;100015.41;;;18.27;100.00
26112;BME280;13829;48.990;8.346;2022-09-03T04:33:47;100016.28;;;18.28;100.00
26112;BME280;13829;48.990;8.346;2022-09-03T04:36:16;100028.78;;;18.25;100.00
26112;BME280;13829;48.990;8.346;2022-09-03T04:38:46;100025.28;;;18.23;100.00
26112;BME280;13829;48.990;8.346;2022-09-03T04:41:15;100030.00;;;18.15;100.00
26112;BME280;13829;48.990;8.346;2022-09-03T04:43:43;100023.81;;;18.15;100.00
26112;BME280;13829;48.990;8.346;2022-09-03T04:46:12;100028.16;;;18.17;100.00
26112;BME280;13829;48.990;8.346;2022-09-03T04:48:41;100034.88;;;18.29;100.00
26112;BME280;13829;48.990;8.346;2022-09-03T04:51:12;100031.00;;;18.39;100.00
26112;BME280;13829;48.990;8.346;2022-09-03T04:53:42;100018.19;;;18.51;100.00
26112;BME280;13829;48.990;8.346;2022-09-03T04:56:14;100023.25;;;18.58;100.00
26112;BME280;13829;48.990;8.346;2022-09-03T04:58:42;100023.19;;;18.60;100.00
26112;BME280;13829;48.990;8.346;2022-09-03T05:01:11;100024.94;;;18.61;100.00
26112;BME280;13829;48.990;8.346;2022-09-03T05:03:39;100022.56;;;18.79;99.54
26112;BME280;13829;48.990;8.346;2022-09-03T05:06:07;100025.09;;;18.82;99.16
26112;BME280;13829;48.990;8.346;2022-09-03T05:08:34;100019.28;;;18.70;100.00
26112;BME280;13829;48.990;8.346;2022-09-03T05:11:03;100016.31;;;18.53;100.00
26112;BME280;13829;48.990;8.346;2022-09-03T05:13:30;100019.38;;;18.42;100.00
26112;BME280;13829;48.990;8.346;2022-09-03T05:15:59;100023.41;;;18.54;100.00
26112;BME280;13829;48.990;8.346;2022-09-03T05:18:27;100033.00;;;18.60;100.00
26112;BME280;13829;48.990;8.346;2022-09-03T05:20:59;100036.72;;;18.54;100.00
26112;BME280;13829;48.990;8.346;2022-09-03T05:23:28;100039.44;;;18.52;100.00
26112;BME280;13829;48.990;8.346;2022-09-03T05:25:56;100034.16;;;18.51;100.00
26112;BME280;13829;48.990;8.346;2022-09-03T05:28:24;100043.25;;;18.70;100.00
26112;BME280;13829;48.990;8.346;2022-09-03T05:30:58;100047.06;;;18.90;100.00
26112;BME280;13829;48.990;8.346;2022-09-03T05:33:25;100043.53;;;18.88;100.00
26112;BME280;13829;48.990;8.346;2022-09-03T05:35:54;100057.91;;;18.84;100.00
26112;BME280;13829;48.990;8.346;2022-09-03T05:38:27;100058.09;;;18.78;100.00
26112;BME280;13829;48.990;8.346;2022-09-03T05:40:57;100064.34;;;18.77;100.00
26112;BME280;13829;48.990;8.346;2022-09-03T05:43:25;100049.94;;;18.82;100.00
26112;BME280;13829;48.990;8.346;2022-09-03T05:45:57;100053.69;;;18.77;100.00
26112;BME280;13829;48.990;8.346;2022-09-03T05:48:25;100055.50;;;18.76;100.00
26112;BME280;13829;48.990;8.346;2022-09-03T05:50:58;100055.38;;;18.79;100.00
26112;BME280;13829;48.990;8.346;2022-09-03T05:53:28;100054.09;;;18.91;100.00
26112;BME280;13829;48.990;8.346;2022-09-03T05:55:56;100063.56;;;19.25;100.00
26112;BME280;13829;48.990;8.346;2022-09-03T05:58:23;100070.41;;;19.32;99.86
26112;BME280;13829;48.990;8.346;2022-09-03T06:00:51;100063.47;;;19.28;100.00
26112;BME280;13829;48.990;8.346;2022-09-03T06:03:18;100068.31;;;19.40;98.92
26112;BME280;13829;48.990;8.346;2022-09-03T06:05:49;100065.53;;;19.20;99.15
26112;BME280;13829;48.990;8.346;2022-09-03T06:08:17;100072.47;;;19.24;99.79
26112;BME280;13829;48.990;8.346;2022-09-03T06:10:46;100071.28;;;19.33;100.00
26112;BME280;13829;48.990;8.346;2022-09-03T06:13:13;100055.59;;;19.49;98.40
26112;BME280;13829;48.990;8.346;2022-09-03T06:15:40;100058.66;;;19.62;97.58
26112;BME280;13829;48.990;8.346;2022-09-03T06:18:07;100048.75;;;19.89;95.61
26112;BME280;13829;48.990;8.346;2022-09-03T06:20:34;100054.94;;;19.90;95.35
26112;BME280;13829;48.990;8.346;2022-09-03T06:23:01;100055.22;;;20.06;93.67
26112;BME280;13829;48.990;8.346;2022-09-03T06:25:28;100056.22;;;20.03;93.94
26112;BME280;13829;48.990;8.346;2022-09-03T06:27:57;100060.13;;;19.94;95.66
26112;BME280;13829;48.990;8.346;2022-09-03T06:30:24;100063.94;;;19.87;98.58
26112;BME280;13829;48.990;8.346;2022-09-03T06:32:51;100065.06;;;19.80;100.00
26112;BME280;13829;48.990;8.346;2022-09-03T06:35:19;100066.06;;;19.77;100.00
26112;BME280;13829;48.990;8.346;2022-09-03T06:37:46;100073.44;;;19.47;100.00
26112;BME280;13829;48.990;8.346;2022-09-03T06:40:13;100072.38;;;19.27;100.00
26112;BME280;13829;48.990;8.346;2022-09-03T06:42:56;100079.75;;;19.20;100.00
26112;BME280;13829;48.990;8.346;2022-09-03T06:45:28;100082.63;;;19.39;100.00
26112;BME280;13829;48.990;8.346;2022-09-03T06:47:55;100088.25;;;19.30;100.00
26112;BME280;13829;48.990;8.346;2022-09-03T06:50:22;100093.59;;;19.30;100.00
26112;BME280;13829;48.990;8.346;2022-09-03T06:52:53;100098.94;;;19.30;100.00
26112;BME280;13829;48.990;8.346;2022-09-03T06:55:21;100086.47;;;19.31;100.00
26112;BME280;13829;48.990;8.346;2022-09-03T06:57:48;100090.34;;;19.22;100.00
26112;BME280;13829;48.990;8.346;2022-09-03T07:00:17;100085.09;;;19.19;100.00
26112;BME280;13829;48.990;8.346;2022-09-03T07:02:45;100085.94;;;19.21;100.00
26112;BME280;13829;48.990;8.346;2022-09-03T07:05:13;100090.22;;;19.25;100.00
26112;BME280;13829;48.990;8.346;2022-09-03T07:07:40;100086.97;;;19.17;100.00
26112;BME280;13829;48.990;8.346;2022-09-03T07:10:09;100095.06;;;19.14;100.00
26112;BME280;13829;48.990;8.346;2022-09-03T07:12:38;100090.13;;;19.03;100.00
26112;BME280;13829;48.990;8.346;2022-09-03T07:15:06;100085.31;;;18.87;100.00
26112;BME280;13829;48.990;8.346;2022-09-03T07:17:35;100088.97;;;18.85;100.00
26112;BME280;13829;48.990;8.346;2022-09-03T07:20:03;100092.81;;;18.76;100.00
26112;BME280;13829;48.990;8.346;2022-09-03T07:22:29;100095.63;;;18.71;100.00
26112;BME280;13829;48.990;8.346;2022-09-03T07:24:56;100099.19;;;18.70;100.00
26112;BME280;13829;48.990;8.346;2022-09-03T07:27:23;100097.25;;;18.75;100.00
26112;BME280;13829;48.990;8.346;2022-09-03T07:29:51;100113.13;;;18.79;100.00
26112;BME280;13829;48.990;8.346;2022-09-03T07:32:18;100116.66;;;18.79;100.00
26112;BME280;13829;48.990;8.346;2022-09-03T07:34:46;100122.19;;;18.73;100.00
26112;BME280;13829;48.990;8.346;2022-09-03T07:37:13;100117.13;;;18.65;100.00
26112;BME280;13829;48.990;8.346;2022-09-03T07:39:40;100126.09;;;18.63;100.00
26112;BME280;13829;48.990;8.346;2022-09-03T07:42:07;100125.44;;;18.56;100.00
26112;BME280;13829;48.990;8.346;2022-09-03T07:44:35;100130.84;;;18.53;100.00
26112;BME280;13829;48.990;8.346;2022-09-03T07:47:02;100127.91;;;18.62;100.00
26112;BME280;13829;48.990;8.346;2022-09-03T07:49:31;100136.28;;;18.77;100.00
26112;BME280;13829;48.990;8.346;2022-09-03T07:51:59;100140.69;;;18.78;100.00
26112;BME280;13829;48.990;8.346;2022-09-03T07:54:27;100139.88;;;18.75;100.00
26112;BME280;13829;48.990;8.346;2022-09-03T07:56:56;100142.59;;;18.74;100.00
26112;BME280;13829;48.990;8.346;2022-09-03T07:59:24;100162.72;;;18.83;100.00
26112;BME280;13829;48.990;8.346;2022-09-03T08:01:51;100148.31;;;18.62;100.00
26112;BME280;13829;48.990;8.346;2022-09-03T08:04:19;100145.22;;;18.47;100.00
26112;BME280;13829;48.990;8.346;2022-09-03T08:06:46;100123.53;;;18.86;100.00
26112;BME280;13829;48.990;8.346;2022-09-03T08:09:15;100111.91;;;18.89;100.00
26112;BME280;13829;48.990;8.346;2022-09-03T08:11:43;100105.94;;;18.81;100.00
26112;BME280;13829;48.990;8.346;2022-09-03T08:14:12;100098.06;;;18.78;100.00
26112;BME280;13829;48.990;8.346;2022-09-03T08:16:42;100106.00;;;18.52;100.00
26112;BME280;13829;48.990;8.346;2022-09-03T08:19:10;100118.50;;;18.77;100.00
26112;BME280;13829;48.990;8.346;2022-09-03T08:21:38;100117.44;;;18.83;100.00
26112;BME280;13829;48.990;8.346;2022-09-03T08:24:07;100104.75;;;18.89;100.00
26112;BME280;13829;48.990;8.346;2022-09-03T08:26:40;100107.50;;;18.88;100.00
26112;BME280;13829;48.990;8.346;2022-09-03T08:29:08;100102.44;;;18.80;100.00
26112;BME280;13829;48.990;8.346;2022-09-03T08:31:36;100106.25;;;18.71;100.00
26112;BME280;13829;48.990;8.346;2022-09-03T08:34:05;100111.22;;;18.82;100.00
26112;BME280;13829;48.990;8.346;2022-09-03T08:36:35;100104.19;;;18.80;100.00
26112;BME280;13829;48.990;8.346;2022-09-03T08:39:05;100100.63;;;18.81;100.00
26112;BME280;13829;48.990;8.346;2022-09-03T08:41:52;100109.44;;;18.83;100.00
26112;BME280;13829;48.990;8.346;2022-09-03T08:44:27;100102.91;;;18.93;100.00
26112;BME280;13829;48.990;8.346;2022-09-03T08:47:01;100106.34;;;18.97;100.00
26112;BME280;13829;48.990;8.346;2022-09-03T08:49:41;100107.97;;;19.26;100.00
26112;BME280;13829;48.990;8.346;2022-09-03T08:52:23;100101.94;;;19.70;100.00
26112;BME280;13829;48.990;8.346;2022-09-03T08:55:05;100110.25;;;19.86;100.00
26112;BME280;13829;48.990;8.346;2022-09-03T08:57:46;100116.16;;;19.94;100.00
26112;BME280;13829;48.990;8.346;2022-09-03T09:00:15;100117.78;;;19.98;100.00
26112;BME280;13829;48.990;8.346;2022-09-03T09:03:05;100117.09;;;19.93;100.00
26112;BME280;13829;48.990;8.346;2022-09-03T09:05:47;100121.94;;;19.82;100.00
26112;BME280;13829;48.990;8.346;2022-09-03T09:08:33;100126.09;;;19.91;100.00
26112;BME280;13829;48.990;8.346;2022-09-03T09:11:13;100127.06;;;19.88;100.00
26112;BME280;13829;48.990;8.346;2022-09-03T09:13:54;100121.19;;;19.78;100.00
26112;BME280;13829;48.990;8.346;2022-09-03T09:16:35;100116.81;;;19.76;100.00
26112;BME280;13829;48.990;8.346;2022-09-03T09:19:30;100122.50;;;19.66;100.00
26112;BME280;13829;48.990;8.346;2022-09-03T09:22:08;100117.88;;;19.71;100.00
26112;BME280;13829;48.990;8.346;2022-09-03T09:24:41;100119.91;;;19.65;100.00
26112;BME280;13829;48.990;8.346;2022-09-03T09:27:12;100121.16;;;19.54;100.00
26112;BME280;13829;48.990;8.346;2022-09-03T09:29:47;100119.25;;;19.58;100.00
26112;BME280;13829;48.990;8.346;2022-09-03T09:32:16;100113.47;;;19.70;100.00
26112;BME280;13829;48.990;8.346;2022-09-03T09:34:45;100123.56;;;19.87;100.00
26112;BME280;13829;48.990;8.346;2022-09-03T09:37:15;100121.03;;;20.07;100.00
26112;BME280;13829;48.990;8.346;2022-09-03T09:39:55;100132.41;;;20.34;100.00
26112;BME280;13829;48.990;8.346;2022-09-03T09:42:24;100130.69;;;20.55;100.00
26112;BME280;13829;48.990;8.346;2022-09-03T09:44:53;100118.06;;;20.81;100.00
26112;BME280;13829;48.990;8.346;2022-09-03T09:47:24;100116.09;;;21.07;100.00
26112;BME280;13829;48.990;8.346;2022-09-03T09:49:55;100110.47;;;21.33;100.00
26112;BME280;13829;48.990;8.346;2022-09-03T09:52:25;100111.84;;;21.63;100.00
26112;BME280;13829;48.990;8.346;2022-09-03T09:55:08;100113.25;;;21.72;100.00
26112;BME280;13829;48.990;8.346;2022-09-03T09:57:36;100110.38;;;21.95;100.00
26112;BME280;13829;48.990;8.346;2022-09-03T10:00:10;100099.41;;;22.19;100.00
26112;BME280;13829;48.990;8.346;2022-09-03T10:02:39;100103.75;;;22.41;100.00
26112;BME280;13829;48.990;8.346;2022-09-03T10:05:20;100104.88;;;22.54;100.00
26112;BME280;13829;48.990;8.346;2022-09-03T10:07:55;100103.97;;;22.73;100.00
26112;BME280;13829;48.990;8.346;2022-09-03T10:10:25;100111.06;;;22.74;100.00
26112;BME280;13829;48.990;8.346;2022-09-03T10:12:59;100108.69;;;22.68;100.00
26112;BME280;13829;48.990;8.346;2022-09-03T10:15:35;100113.06;;;22.88;100.00
26112;BME280;13829;48.990;8.346;2022-09-03T10:18:16;100106.91;;;23.21;100.00
26112;BME280;13829;48.990;8.346;2022-09-03T10:21:01;100106.00;;;23.38;100.00
26112;BME280;13829;48.990;8.346;2022-09-03T10:23:42;100108.34;;;23.61;100.00
26112;BME280;13829;48.990;8.346;2022-09-03T10:26:20;100102.13;;;23.77;100.00
26112;BME280;13829;48.990;8.346;2022-09-03T10:28:57;100105.81;;;23.25;99.96
26112;BME280;13829;48.990;8.346;2022-09-03T10:31:44;100098.91;;;23.37;100.00
26112;BME280;13829;48.990;8.346;2022-09-03T10:34:26;100095.69;;;23.30;100.00
26112;BME280;13829;48.990;8.346;2022-09-03T10:37:12;100103.22;;;23.23;100.00
26112;BME280;13829;48.990;8.346;2022-09-03T10:40:03;100109.00;;;22.96;100.00
26112;BME280;13829;48.990;8.346;2022-09-03T10:42:41;100108.44;;;22.72;100.00
26112;BME280;13829;48.990;8.346;2022-09-03T10:45:20;100113.41;;;22.62;100.00
26112;BME280;13829;48.990;8.346;2022-09-03T10:48:34;100115.13;;;22.63;100.00
26112;BME280;13829;48.990;8.346;2022-09-03T10:51:14;100115.47;;;22.57;100.00
26112;BME280;13829;48.990;8.346;2022-09-03T10:54:03;100117.97;;;22.60;100.00
26112;BME280;13829;48.990;8.346;2022-09-03T10:56:46;100122.84;;;22.52;100.00
26112;BME280;13829;48.990;8.346;2022-09-03T10:59:35;100120.41;;;22.47;100.00
26112;BME280;13829;48.990;8.346;2022-09-03T11:02:28;100116.19;;;22.42;100.00
26112;BME280;13829;48.990;8.346;2022-09-03T11:05:05;100118.22;;;22.37;100.00
26112;BME280;13829;48.990;8.346;2022-09-03T11:07:39;100113.75;;;22.37;100.00
26112;BME280;13829;48.990;8.346;2022-09-03T11:10:15;100115.19;;;22.44;100.00
26112;BME280;13829;48.990;8.346;2022-09-03T11:12:49;100112.44;;;22.46;100.00
26112;BME280;13829;48.990;8.346;2022-09-03T11:15:26;100113.84;;;22.53;100.00
26112;BME280;13829;48.990;8.346;2022-09-03T11:18:03;100113.47;;;22.61;100.00
26112;BME280;13829;48.990;8.346;2022-09-03T11:20:36;100110.56;;;22.66;100.00
26112;BME280;13829;48.990;8.346;2022-09-03T11:23:06;100106.31;;;22.61;100.00
26112;BME280;13829;48.990;8.346;2022-09-03T11:25:40;100119.41;;;22.68;100.00
26112;BME280;13829;48.990;8.346;2022-09-03T11:28:25;100116.75;;;22.68;100.00
26112;BME280;13829;48.990;8.346;2022-09-03T11:31:24;100110.84;;;22.96;100.00
26112;BME280;13829;48.990;8.346;2022-09-03T11:34:04;100108.63;;;23.04;100.00
26112;BME280;13829;48.990;8.346;2022-09-03T11:36:36;100096.88;;;23.07;100.00
26112;BME280;13829;48.990;8.346;2022-09-03T11:39:17;100107.75;;;23.04;100.00
26112;BME280;13829;48.990;8.346;2022-09-03T11:41:57;100109.88;;;22.79;100.00
26112;BME280;13829;48.990;8.346;2022-09-03T11:44:36;100102.69;;;22.62;100.00
26112;BME280;13829;48.990;8.346;2022-09-03T11:47:16;100099.81;;;22.48;100.00
26112;BME280;13829;48.990;8.346;2022-09-03T11:49:49;100096.84;;;22.54;100.00
26112;BME280;13829;48.990;8.346;2022-09-03T11:52:30;100093.22;;;22.55;100.00
26112;BME280;13829;48.990;8.346;2022-09-03T11:54:58;100092.34;;;22.72;100.00
26112;BME280;13829;48.990;8.346;2022-09-03T11:57:28;100097.00;;;22.69;100.00
26112;BME280;13829;48.990;8.346;2022-09-03T12:00:09;100095.84;;;22.74;100.00
26112;BME280;13829;48.990;8.346;2022-09-03T12:02:44;100089.75;;;22.53;100.00
26112;BME280;13829;48.990;8.346;2022-09-03T12:05:25;100086.72;;;22.23;100.00
26112;BME280;13829;48.990;8.346;2022-09-03T12:08:27;100084.94;;;22.23;100.00
26112;BME280;13829;48.990;8.346;2022-09-03T12:11:21;100090.03;;;22.47;100.00
26112;BME280;13829;48.990;8.346;2022-09-03T12:14:05;100091.81;;;22.66;100.00
26112;BME280;13829;48.990;8.346;2022-09-03T12:17:20;100090.31;;;22.77;100.00
26112;BME280;13829;48.990;8.346;2022-09-03T12:19:54;100089.28;;;22.80;100.00
26112;BME280;13829;48.990;8.346;2022-09-03T12:22:24;100084.94;;;22.77;100.00
26112;BME280;13829;48.990;8.346;2022-09-03T12:24:54;100090.72;;;22.87;100.00
26112;BME280;13829;48.990;8.346;2022-09-03T12:27:24;100089.16;;;23.01;100.00
26112;BME280;13829;48.990;8.346;2022-09-03T12:29:55;100086.28;;;23.04;100.00
26112;BME280;13829;48.990;8.346;2022-09-03T12:32:26;100089.47;;;23.12;100.00
26112;BME280;13829;48.990;8.346;2022-09-03T12:34:55;100086.69;;;23.31;98.97
26112;BME280;13829;48.990;8.346;2022-09-03T12:37:25;100080.75;;;23.42;95.29
26112;BME280;13829;48.990;8.346;2022-09-03T12:39:55;100076.72;;;23.33;96.31
26112;BME280;13829;48.990;8.346;2022-09-03T12:42:26;100073.19;;;23.33;93.58
26112;BME280;13829;48.990;8.346;2022-09-03T12:44:54;100080.03;;;23.38;96.25
26112;BME280;13829;48.990;8.346;2022-09-03T12:47:23;100083.31;;;23.27;97.61
26112;BME280;13829;48.990;8.346;2022-09-03T12:49:55;100100.03;;;23.15;100.00
26112;BME280;13829;48.990;8.346;2022-09-03T12:52:27;100096.41;;;22.99;100.00
26112;BME280;13829;48.990;8.346;2022-09-03T12:55:02;100085.34;;;22.87;100.00
26112;BME280;13829;48.990;8.346;2022-09-03T12:57:36;100096.38;;;22.81;100.00
26112;BME280;13829;48.990;8.346;2022-09-03T13:00:08;100113.75;;;22.91;100.00
26112;BME280;13829;48.990;8.346;2022-09-03T13:02:43;100114.38;;;22.96;100.00
26112;BME280;13829;48.990;8.346;2022-09-03T13:05:18;100108.94;;;22.98;96.33
26112;BME280;13829;48.990;8.346;2022-09-03T13:07:50;100101.75;;;22.99;97.14
26112;BME280;13829;48.990;8.346;2022-09-03T13:10:27;100105.47;;;23.13;97.33
26112;BME280;13829;48.990;8.346;2022-09-03T13:12:59;100113.88;;;23.41;96.89
26112;BME280;13829;48.990;8.346;2022-09-03T13:15:29;100117.00;;;23.67;94.67
26112;BME280;13829;48.990;8.346;2022-09-03T13:18:15;100114.47;;;23.97;96.37
26112;BME280;13829;48.990;8.346;2022-09-03T13:21:02;100114.50;;;24.13;92.20
26112;BME280;13829;48.990;8.346;2022-09-03T13:24:02;100119.00;;;24.29;93.55